createdAt,value
2023-05-16T00:00:42.092Z, 40.35
2023-05-16T00:01:42.135Z, 40.38
2023-05-16T00:02:42.460Z, 40.40
2023-05-16T00:03:42.245Z, 40.37
2023-05-16T00:04:42.171Z, 40.25
2023-05-16T00:05:42.175Z, 40.25
2023-05-16T00:06:42.147Z, 40.28
2023-05-16T00:07:42.245Z, 40.28
2023-05-16T00:08:42.228Z, 40.26
2023-05-16T00:09:42.257Z, 40.29
2023-05-16T00:10:42.285Z, 40.29
2023-05-16T00:11:42.230Z, 40.26
2023-05-16T00:12:42.301Z, 40.27
2023-05-16T00:13:42.268Z, 40.24
2023-05-16T00:14:42.328Z, 40.26
2023-05-16T00:15:42.295Z, 40.26
2023-05-16T00:16:42.444Z, 40.23
2023-05-16T00:17:42.374Z, 40.16
2023-05-16T00:18:42.396Z, 40.09
2023-05-16T00:19:42.489Z, 40.13
2023-05-16T00:20:42.376Z, 40.17
2023-05-16T00:21:42.352Z, 40.14
2023-05-16T00:22:42.369Z, 40.10
2023-05-16T00:23:42.383Z, 40.10
2023-05-16T00:24:42.385Z, 40.11
2023-05-16T00:25:42.405Z, 40.09
2023-05-16T00:26:42.392Z, 40.16
2023-05-16T00:27:42.467Z, 40.15
2023-05-16T00:28:42.453Z, 40.10
2023-05-16T00:29:42.495Z, 40.07
2023-05-16T00:30:42.498Z, 40.04
2023-05-16T00:31:42.584Z, 40.05
2023-05-16T00:32:42.499Z, 40.00
2023-05-16T00:33:42.556Z, 39.96
2023-05-16T00:34:42.544Z, 39.98
2023-05-16T00:35:42.559Z, 39.97
2023-05-16T00:36:42.542Z, 39.93
2023-05-16T00:37:42.652Z, 39.97
2023-05-16T00:38:42.609Z, 39.98
2023-05-16T00:39:42.606Z, 39.96
2023-05-16T00:40:42.635Z, 39.90
2023-05-16T00:41:42.608Z, 39.93
2023-05-16T00:42:42.622Z, 39.90
2023-05-16T00:43:42.624Z, 39.87
2023-05-16T00:44:42.687Z, 39.85
2023-05-16T00:45:42.666Z, 39.81
2023-05-16T00:46:42.784Z, 39.83
2023-05-16T00:47:42.836Z, 39.80
2023-05-16T00:48:42.715Z, 39.78
2023-05-16T00:49:42.728Z, 39.81
2023-05-16T00:50:42.717Z, 39.78
2023-05-16T00:51:42.797Z, 39.75
2023-05-16T00:52:42.754Z, 39.74
2023-05-16T00:53:42.803Z, 39.79
2023-05-16T00:54:42.789Z, 39.81
2023-05-16T00:55:42.815Z, 39.76
2023-05-16T00:56:42.826Z, 39.75
2023-05-16T00:57:42.813Z, 39.77
2023-05-16T00:58:42.843Z, 39.75
2023-05-16T00:59:42.833Z, 39.73
2023-05-16T01:00:42.914Z, 39.69
2023-05-16T01:01:42.956Z, 39.74
2023-05-16T01:02:42.964Z, 39.71
2023-05-16T01:03:42.973Z, 39.69
2023-05-16T01:04:42.965Z, 39.62
2023-05-16T01:05:42.917Z, 39.64
2023-05-16T01:06:42.966Z, 39.65
2023-05-16T01:07:42.943Z, 39.62
2023-05-16T01:08:42.945Z, 39.60
2023-05-16T01:09:43.017Z, 39.58
2023-05-16T01:10:42.995Z, 39.58
2023-05-16T01:11:42.992Z, 39.61
2023-05-16T01:12:42.992Z, 39.62
2023-05-16T01:13:42.993Z, 39.57
2023-05-16T01:14:43.049Z, 39.57
2023-05-16T01:15:43.096Z, 39.58
2023-05-16T01:16:43.140Z, 39.52
2023-05-16T01:17:43.120Z, 39.55
2023-05-16T01:18:43.170Z, 39.54
2023-05-16T01:19:43.079Z, 39.52
2023-05-16T01:20:43.120Z, 39.51
2023-05-16T01:21:43.107Z, 39.47
2023-05-16T01:22:43.107Z, 39.48
2023-05-16T01:23:43.113Z, 39.47
2023-05-16T01:24:43.102Z, 39.43
2023-05-16T01:25:43.105Z, 39.42
2023-05-16T01:26:43.174Z, 39.42
2023-05-16T01:27:43.150Z, 39.43
2023-05-16T01:28:43.152Z, 39.38
2023-05-16T01:29:43.166Z, 39.41
2023-05-16T01:30:43.188Z, 39.37
2023-05-16T01:31:43.268Z, 39.39
2023-05-16T01:32:43.262Z, 39.37
2023-05-16T01:33:43.289Z, 39.39
2023-05-16T01:34:43.263Z, 39.33
2023-05-16T01:35:43.305Z, 39.36
2023-05-16T01:36:43.306Z, 39.39
2023-05-16T01:37:43.276Z, 39.39
2023-05-16T01:38:43.281Z, 39.34
2023-05-16T01:39:43.285Z, 39.35
2023-05-16T01:40:43.366Z, 39.36
2023-05-16T01:41:43.343Z, 39.29
2023-05-16T01:42:43.345Z, 39.31
2023-05-16T01:43:43.409Z, 39.26
2023-05-16T01:44:43.373Z, 39.27
2023-05-16T01:45:43.451Z, 39.28
2023-05-16T01:46:43.491Z, 39.26
2023-05-16T01:47:43.461Z, 39.19
2023-05-16T01:48:43.426Z, 39.17
2023-05-16T01:49:43.424Z, 39.20
2023-05-16T01:50:43.422Z, 39.20
2023-05-16T01:51:43.428Z, 39.15
2023-05-16T01:52:43.504Z, 39.15
2023-05-16T01:53:43.475Z, 39.15
2023-05-16T01:54:43.491Z, 39.15
2023-05-16T01:55:43.476Z, 39.10
2023-05-16T01:56:43.504Z, 39.10
2023-05-16T01:57:43.606Z, 39.11
2023-05-16T01:58:43.698Z, 39.11
2023-05-16T01:59:43.587Z, 39.10
2023-05-16T02:00:43.639Z, 39.16
2023-05-16T02:01:43.789Z, 39.19
2023-05-16T02:02:43.630Z, 39.12
2023-05-16T02:03:43.636Z, 39.10
2023-05-16T02:04:43.610Z, 39.03
2023-05-16T02:05:43.598Z, 39.01
2023-05-16T02:06:43.687Z, 39.02
2023-05-16T02:07:43.664Z, 38.99
2023-05-16T02:08:43.708Z, 38.97
2023-05-16T02:09:43.681Z, 38.99
2023-05-16T02:10:43.679Z, 38.97
2023-05-16T02:11:43.680Z, 38.96
2023-05-16T02:12:43.691Z, 38.94
2023-05-16T02:13:43.761Z, 38.93
2023-05-16T02:14:43.739Z, 38.91
2023-05-16T02:15:43.777Z, 38.90
2023-05-16T02:16:43.790Z, 38.92
2023-05-16T02:17:43.796Z, 38.88
2023-05-16T02:18:43.779Z, 38.92
2023-05-16T02:19:43.777Z, 38.95
2023-05-16T02:20:43.861Z, 38.96
2023-05-16T02:21:43.820Z, 38.92
2023-05-16T02:22:43.868Z, 38.93
2023-05-16T02:23:43.841Z, 38.91
2023-05-16T02:24:43.910Z, 38.88
2023-05-16T02:25:43.899Z, 38.88
2023-05-16T02:26:43.878Z, 38.86
2023-05-16T02:27:43.892Z, 38.81
2023-05-16T02:28:43.891Z, 38.83
2023-05-16T02:29:43.937Z, 38.84
2023-05-16T02:30:43.977Z, 38.84
2023-05-16T02:31:44.025Z, 38.82
2023-05-16T02:32:44.031Z, 38.78
2023-05-16T02:33:43.992Z, 38.76
2023-05-16T02:34:44.006Z, 38.74
2023-05-16T02:35:44.079Z, 38.74
2023-05-16T02:36:44.013Z, 38.75
2023-05-16T02:37:44.014Z, 38.77
2023-05-16T02:38:44.045Z, 38.75
2023-05-16T02:39:44.018Z, 38.79
2023-05-16T02:40:44.085Z, 38.73
2023-05-16T02:41:44.050Z, 38.72
2023-05-16T02:42:44.092Z, 38.71
2023-05-16T02:43:46.176Z, 38.70
2023-05-16T02:44:44.069Z, 38.74
2023-05-16T02:45:44.149Z, 38.70
2023-05-16T02:46:44.217Z, 38.68
2023-05-16T02:47:44.166Z, 38.62
2023-05-16T02:48:44.134Z, 38.58
2023-05-16T02:49:44.126Z, 38.64
2023-05-16T02:50:44.248Z, 38.62
2023-05-16T02:51:44.200Z, 38.65
2023-05-16T02:52:44.240Z, 38.59
2023-05-16T02:53:44.236Z, 38.59
2023-05-16T02:54:45.434Z, 38.53
2023-05-16T02:55:44.223Z, 38.53
2023-05-16T02:56:44.216Z, 38.50
2023-05-16T02:57:44.228Z, 38.53
2023-05-16T02:58:44.243Z, 38.52
2023-05-16T02:59:44.252Z, 38.55
2023-05-16T03:00:44.260Z, 38.55
2023-05-16T03:01:44.404Z, 38.51
2023-05-16T03:02:44.428Z, 38.51
2023-05-16T03:03:44.571Z, 38.47
2023-05-16T03:04:44.340Z, 38.46
2023-05-16T03:05:44.384Z, 38.46
2023-05-16T03:06:44.369Z, 38.45
2023-05-16T03:07:44.383Z, 38.43
2023-05-16T03:08:44.376Z, 38.43
2023-05-16T03:09:44.375Z, 38.41
2023-05-16T03:10:44.466Z, 38.40
2023-05-16T03:11:44.426Z, 38.41
2023-05-16T03:12:44.485Z, 38.42
2023-05-16T03:13:44.578Z, 38.41
2023-05-16T03:14:44.508Z, 38.41
2023-05-16T03:15:44.577Z, 38.38
2023-05-16T03:16:44.609Z, 38.36
2023-05-16T03:17:44.546Z, 38.38
2023-05-16T03:18:44.612Z, 38.41
2023-05-16T03:19:44.517Z, 38.40
2023-05-16T03:20:44.581Z, 38.39
2023-05-16T03:21:44.566Z, 38.32
2023-05-16T03:22:44.601Z, 38.35
2023-05-16T03:23:44.585Z, 38.34
2023-05-16T03:24:44.658Z, 38.27
2023-05-16T03:25:44.616Z, 38.24
2023-05-16T03:26:44.583Z, 38.28
2023-05-16T03:27:44.651Z, 38.27
2023-05-16T03:28:44.654Z, 38.23
2023-05-16T03:29:44.665Z, 38.25
2023-05-16T03:30:44.648Z, 38.24
2023-05-16T03:31:44.726Z, 39.07
2023-05-16T03:32:44.671Z, 40.32
2023-05-16T03:33:44.681Z, 42.28
2023-05-16T03:34:44.701Z, 43.40
2023-05-16T03:35:44.719Z, 44.23
2023-05-16T03:36:44.780Z, 44.89
2023-05-16T03:37:44.762Z, 45.49
2023-05-16T03:38:44.816Z, 45.81
2023-05-16T03:39:44.789Z, 45.94
2023-05-16T03:40:44.853Z, 46.03
2023-05-16T03:41:44.825Z, 46.24
2023-05-16T03:42:44.825Z, 46.58
2023-05-16T03:43:44.828Z, 46.95
2023-05-16T03:44:44.858Z, 47.28
2023-05-16T03:45:44.875Z, 47.54
2023-05-16T03:46:44.867Z, 47.80
2023-05-16T03:47:44.952Z, 48.01
2023-05-16T03:48:44.877Z, 48.17
2023-05-16T03:49:44.957Z, 48.30
2023-05-16T03:50:44.934Z, 48.45
2023-05-16T03:51:44.991Z, 48.63
2023-05-16T03:52:44.975Z, 48.75
2023-05-16T03:53:44.991Z, 48.85
2023-05-16T03:54:44.970Z, 48.93
2023-05-16T03:55:47.394Z, 49.02
2023-05-16T03:56:44.974Z, 49.14
2023-05-16T03:57:45.014Z, 49.19
2023-05-16T03:58:44.984Z, 49.20
2023-05-16T03:59:44.999Z, 49.16
2023-05-16T04:00:45.053Z, 49.12
2023-05-16T04:01:45.043Z, 49.20
2023-05-16T04:02:45.417Z, 49.62
2023-05-16T04:03:45.079Z, 50.00
2023-05-16T04:04:45.050Z, 49.98
2023-05-16T04:05:45.232Z, 49.69
2023-05-16T04:06:45.120Z, 49.36
2023-05-16T04:07:45.114Z, 49.08
2023-05-16T04:08:45.189Z, 48.86
2023-05-16T04:09:45.175Z, 48.68
2023-05-16T04:10:45.195Z, 48.57
2023-05-16T04:11:45.175Z, 48.43
2023-05-16T04:12:45.229Z, 48.29
2023-05-16T04:13:45.256Z, 48.22
2023-05-16T04:14:45.196Z, 48.13
2023-05-16T04:15:45.198Z, 48.02
2023-05-16T04:16:45.238Z, 47.91
2023-05-16T04:17:45.317Z, 47.79
2023-05-16T04:18:45.315Z, 47.73
2023-05-16T04:19:45.318Z, 47.67
2023-05-16T04:20:45.286Z, 47.63
2023-05-16T04:21:45.284Z, 47.51
2023-05-16T04:22:45.284Z, 47.43
2023-05-16T04:23:45.280Z, 47.37
2023-05-16T04:24:45.313Z, 47.32
2023-05-16T04:25:45.297Z, 47.35
2023-05-16T04:26:45.354Z, 47.25
2023-05-16T04:27:45.337Z, 47.26
2023-05-16T04:28:45.334Z, 47.20
2023-05-16T04:29:45.387Z, 47.06
2023-05-16T04:30:45.362Z, 47.04
2023-05-16T04:31:45.562Z, 47.05
2023-05-16T04:32:45.466Z, 47.03
2023-05-16T04:33:45.501Z, 47.07
2023-05-16T04:34:45.495Z, 47.03
2023-05-16T04:35:45.475Z, 47.05
2023-05-16T04:36:45.474Z, 47.02
2023-05-16T04:37:45.474Z, 46.97
2023-05-16T04:38:45.546Z, 46.96
2023-05-16T04:39:45.528Z, 46.90
2023-05-16T04:40:45.580Z, 46.86
2023-05-16T04:41:45.558Z, 46.85
2023-05-16T04:42:45.572Z, 46.81
2023-05-16T04:43:45.548Z, 46.77
2023-05-16T04:44:45.551Z, 46.77
2023-05-16T04:45:45.628Z, 46.76
2023-05-16T04:46:45.733Z, 46.71
2023-05-16T04:47:45.659Z, 46.67
2023-05-16T04:48:45.600Z, 46.68
2023-05-16T04:49:45.617Z, 46.62
2023-05-16T04:50:45.714Z, 46.64
2023-05-16T04:51:45.660Z, 46.67
2023-05-16T04:52:45.671Z, 46.62
2023-05-16T04:53:45.668Z, 46.56
2023-05-16T04:54:45.679Z, 46.53
2023-05-16T04:55:45.766Z, 46.49
2023-05-16T04:56:45.739Z, 46.47
2023-05-16T04:57:45.758Z, 46.47
2023-05-16T04:58:45.746Z, 46.41
2023-05-16T04:59:45.794Z, 46.37
2023-05-16T05:00:45.781Z, 46.34
2023-05-16T05:01:45.849Z, 46.37
2023-05-16T05:02:45.790Z, 46.35
2023-05-16T05:04:45.857Z, 46.34
2023-05-16T05:05:45.840Z, 46.32
2023-05-16T05:06:45.830Z, 46.26
2023-05-16T05:07:45.838Z, 46.26
2023-05-16T05:08:45.890Z, 46.26
2023-05-16T05:09:45.876Z, 46.25
2023-05-16T05:10:45.884Z, 46.23
2023-05-16T05:11:45.916Z, 46.25
2023-05-16T05:12:45.882Z, 46.21
2023-05-16T05:13:45.960Z, 46.10
2023-05-16T05:14:45.929Z, 46.06
2023-05-16T05:15:45.988Z, 46.09
2023-05-16T05:16:45.969Z, 46.00
2023-05-16T05:17:46.101Z, 46.46
2023-05-16T05:18:46.103Z, 47.39
2023-05-16T05:19:46.000Z, 47.57
2023-05-16T05:20:45.993Z, 47.34
2023-05-16T05:21:46.013Z, 47.15
2023-05-16T05:22:46.025Z, 46.93
2023-05-16T05:23:46.027Z, 46.80
2023-05-16T05:24:46.039Z, 46.65
2023-05-16T05:25:46.061Z, 46.50
2023-05-16T05:26:46.070Z, 46.41
2023-05-16T05:27:46.103Z, 46.31
2023-05-16T05:28:53.724Z, 46.21
2023-05-16T05:29:46.098Z, 46.14
2023-05-16T05:30:46.138Z, 46.12
2023-05-16T05:31:46.229Z, 45.95
2023-05-16T05:32:46.254Z, 45.94
2023-05-16T05:33:46.183Z, 45.87
2023-05-16T05:34:46.257Z, 45.81
2023-05-16T05:35:46.224Z, 45.77
2023-05-16T05:36:46.232Z, 45.72
2023-05-16T05:37:46.220Z, 45.70
2023-05-16T05:38:46.239Z, 45.69
2023-05-16T05:39:46.250Z, 45.60
2023-05-16T05:40:46.231Z, 45.60
2023-05-16T05:41:46.308Z, 45.52
2023-05-16T05:42:47.337Z, 45.44
2023-05-16T05:43:46.351Z, 45.36
2023-05-16T05:44:46.320Z, 45.30
2023-05-16T05:45:46.392Z, 45.26
2023-05-16T05:46:46.341Z, 45.26
2023-05-16T05:47:46.434Z, 45.20
2023-05-16T05:48:46.408Z, 45.21
2023-05-16T05:49:46.352Z, 45.17
2023-05-16T05:50:46.445Z, 45.13
2023-05-16T05:51:46.416Z, 45.13
2023-05-16T05:52:46.464Z, 45.04
2023-05-16T05:53:46.442Z, 44.94
2023-05-16T05:54:46.475Z, 44.95
2023-05-16T05:55:46.482Z, 44.94
2023-05-16T05:56:46.466Z, 44.89
2023-05-16T05:57:46.537Z, 44.87
2023-05-16T05:58:46.517Z, 44.79
2023-05-16T05:59:46.509Z, 44.74
2023-05-16T06:00:46.521Z, 44.76
2023-05-16T06:01:46.568Z, 44.73
2023-05-16T06:02:46.623Z, 44.71
2023-05-16T06:03:46.567Z, 44.69
2023-05-16T06:04:46.580Z, 44.71
2023-05-16T06:05:46.610Z, 44.69
2023-05-16T06:06:46.582Z, 44.69
2023-05-16T06:07:46.610Z, 44.69
2023-05-16T06:08:46.604Z, 44.67
2023-05-16T06:09:46.682Z, 44.61
2023-05-16T06:10:46.685Z, 44.59
2023-05-16T06:11:46.700Z, 44.58
2023-05-16T06:12:46.694Z, 44.59
2023-05-16T06:13:46.775Z, 44.58
2023-05-16T06:14:46.685Z, 44.58
2023-05-16T06:15:46.726Z, 44.53
2023-05-16T06:16:46.900Z, 44.49
2023-05-16T06:17:46.789Z, 44.42
2023-05-16T06:18:46.856Z, 44.43
2023-05-16T06:19:46.789Z, 44.44
2023-05-16T06:20:46.833Z, 44.40
2023-05-16T06:21:46.829Z, 44.38
2023-05-16T06:22:46.829Z, 44.33
2023-05-16T06:23:46.821Z, 44.28
2023-05-16T06:24:46.826Z, 44.29
2023-05-16T06:25:46.890Z, 44.27
2023-05-16T06:26:46.873Z, 44.26
2023-05-16T06:27:46.869Z, 44.23
2023-05-16T06:28:46.868Z, 44.20
2023-05-16T06:29:46.933Z, 44.18
2023-05-16T06:30:46.902Z, 44.20
2023-05-16T06:31:47.034Z, 44.23
2023-05-16T06:32:46.983Z, 44.23
2023-05-16T06:33:46.914Z, 44.18
2023-05-16T06:34:46.924Z, 44.14
2023-05-16T06:35:46.945Z, 44.14
2023-05-16T06:36:47.117Z, 44.07
2023-05-16T06:37:46.995Z, 44.07
2023-05-16T06:38:47.002Z, 44.12
2023-05-16T06:39:47.006Z, 43.98
2023-05-16T06:40:47.116Z, 43.97
2023-05-16T06:41:47.132Z, 44.00
2023-05-16T06:42:47.120Z, 43.95
2023-05-16T06:43:47.148Z, 43.92
2023-05-16T06:44:47.155Z, 43.85
2023-05-16T06:45:47.263Z, 43.82
2023-05-16T06:46:47.339Z, 43.78
2023-05-16T06:47:47.313Z, 43.83
2023-05-16T06:48:47.274Z, 43.78
2023-05-16T06:49:47.273Z, 43.78
2023-05-16T06:50:47.282Z, 43.74
2023-05-16T06:51:47.279Z, 43.66
2023-05-16T06:52:47.418Z, 43.66
2023-05-16T06:53:47.293Z, 43.69
2023-05-16T06:54:47.412Z, 43.70
2023-05-16T06:55:47.426Z, 43.63
2023-05-16T06:56:47.413Z, 43.62
2023-05-16T06:57:47.421Z, 43.66
2023-05-16T06:58:47.431Z, 43.65
2023-05-16T06:59:47.417Z, 43.61
2023-05-16T07:00:47.435Z, 43.58
2023-05-16T07:01:47.576Z, 43.54
2023-05-16T07:02:47.483Z, 43.58
2023-05-16T07:03:47.519Z, 43.48
2023-05-16T07:04:47.423Z, 43.46
2023-05-16T07:05:47.557Z, 43.38
2023-05-16T07:06:47.453Z, 43.38
2023-05-16T07:07:47.573Z, 43.39
2023-05-16T07:08:47.572Z, 43.32
2023-05-16T07:09:47.560Z, 43.30
2023-05-16T07:10:47.564Z, 43.31
2023-05-16T07:11:47.566Z, 43.26
2023-05-16T07:12:47.572Z, 43.27
2023-05-16T07:13:47.570Z, 43.29
2023-05-16T07:14:47.575Z, 43.27
2023-05-16T07:15:47.566Z, 43.20
2023-05-16T07:16:47.617Z, 43.20
2023-05-16T07:17:47.598Z, 43.20
2023-05-16T07:18:47.741Z, 43.17
2023-05-16T07:19:47.718Z, 43.17
2023-05-16T07:20:47.716Z, 43.19
2023-05-16T07:21:47.728Z, 43.10
2023-05-16T07:22:47.730Z, 43.09
2023-05-16T07:23:47.720Z, 43.04
2023-05-16T07:24:47.730Z, 43.01
2023-05-16T07:25:47.719Z, 43.04
2023-05-16T07:26:47.720Z, 43.04
2023-05-16T07:27:47.722Z, 43.05
2023-05-16T07:28:47.854Z, 42.99
2023-05-16T07:29:47.734Z, 42.95
2023-05-16T07:30:47.866Z, 42.96
2023-05-16T07:31:47.902Z, 42.91
2023-05-16T07:32:47.794Z, 42.91
2023-05-16T07:33:47.867Z, 42.89
2023-05-16T07:34:47.870Z, 42.89
2023-05-16T07:35:47.861Z, 42.86
2023-05-16T07:36:47.860Z, 42.85
2023-05-16T07:37:47.862Z, 42.87
2023-05-16T07:38:47.864Z, 42.81
2023-05-16T07:39:48.006Z, 42.79
2023-05-16T07:40:47.878Z, 42.76
2023-05-16T07:41:47.999Z, 42.72
2023-05-16T07:42:48.006Z, 42.73
2023-05-16T07:43:49.106Z, 42.70
2023-05-16T07:44:48.009Z, 42.67
2023-05-16T07:45:48.027Z, 42.64
2023-05-16T07:46:48.023Z, 42.60
2023-05-16T07:47:48.091Z, 42.60
2023-05-16T07:48:48.006Z, 42.57
2023-05-16T07:49:48.015Z, 42.58
2023-05-16T07:50:48.013Z, 42.52
2023-05-16T07:51:48.014Z, 42.47
2023-05-16T07:52:48.010Z, 42.46
2023-05-16T07:53:48.014Z, 42.40
2023-05-16T07:54:48.011Z, 42.44
2023-05-16T07:55:48.150Z, 42.41
2023-05-16T07:56:48.040Z, 42.46
2023-05-16T07:57:48.166Z, 42.48
2023-05-16T07:58:48.157Z, 42.40
2023-05-16T07:59:48.176Z, 42.31
2023-05-16T08:00:48.155Z, 42.33
2023-05-16T08:01:48.156Z, 42.33
2023-05-16T08:02:48.258Z, 42.31
2023-05-16T08:03:48.262Z, 42.27
2023-05-16T08:04:48.156Z, 42.26
2023-05-16T08:05:48.279Z, 42.25
2023-05-16T08:06:48.240Z, 42.20
2023-05-16T08:07:48.233Z, 42.20
2023-05-16T08:08:48.254Z, 42.18
2023-05-16T08:09:48.244Z, 42.16
2023-05-16T08:10:48.454Z, 42.16
2023-05-16T08:11:48.250Z, 42.15
2023-05-16T08:12:48.261Z, 42.08
2023-05-16T08:13:48.251Z, 42.04
2023-05-16T08:14:48.248Z, 41.99
2023-05-16T08:15:48.302Z, 41.97
2023-05-16T08:16:48.425Z, 41.95
2023-05-16T08:17:48.490Z, 41.91
2023-05-16T08:18:48.308Z, 41.92
2023-05-16T08:19:48.425Z, 41.93
2023-05-16T08:20:48.423Z, 41.92
2023-05-16T08:21:48.433Z, 41.84
2023-05-16T08:22:48.444Z, 41.88
2023-05-16T08:23:48.429Z, 41.83
2023-05-16T08:24:48.432Z, 41.78
2023-05-16T08:25:48.445Z, 41.82
2023-05-16T08:26:48.464Z, 41.82
2023-05-16T08:27:48.460Z, 41.81
2023-05-16T08:28:48.604Z, 41.76
2023-05-16T08:29:48.609Z, 41.75
2023-05-16T08:30:48.616Z, 41.71
2023-05-16T08:31:48.737Z, 41.69
2023-05-16T08:32:48.638Z, 41.69
2023-05-16T08:33:48.610Z, 41.70
2023-05-16T08:34:48.610Z, 41.68
2023-05-16T08:35:48.610Z, 41.68
2023-05-16T08:36:48.620Z, 41.65
2023-05-16T08:37:48.612Z, 41.66
2023-05-16T08:38:48.635Z, 41.65
2023-05-16T08:39:48.629Z, 41.62
2023-05-16T08:40:48.798Z, 41.59
2023-05-16T08:41:48.786Z, 41.55
2023-05-16T08:42:48.776Z, 41.54
2023-05-16T08:43:48.789Z, 41.51
2023-05-16T08:44:48.784Z, 41.52
2023-05-16T08:45:48.799Z, 41.50
2023-05-16T08:46:48.884Z, 41.47
2023-05-16T08:47:48.822Z, 41.43
2023-05-16T08:48:48.787Z, 41.43
2023-05-16T08:49:48.788Z, 41.37
2023-05-16T08:50:48.792Z, 41.37
2023-05-16T08:51:48.800Z, 41.43
2023-05-16T08:52:48.806Z, 41.41
2023-05-16T08:53:48.802Z, 41.29
2023-05-16T08:55:05.658Z, 41.30
2023-05-16T08:55:48.964Z, 41.36
2023-05-16T08:56:48.827Z, 41.34
2023-05-16T08:57:48.974Z, 41.30
2023-05-16T08:58:48.964Z, 41.29
2023-05-16T08:59:49.177Z, 41.24
2023-05-16T09:00:49.020Z, 41.27
2023-05-16T09:01:48.976Z, 41.24
2023-05-16T09:02:48.991Z, 41.19
2023-05-16T09:03:49.018Z, 41.22
2023-05-16T09:04:48.976Z, 41.21
2023-05-16T09:05:48.983Z, 41.15
2023-05-16T09:06:49.987Z, 41.10
2023-05-16T09:07:48.983Z, 41.13
2023-05-16T09:08:48.986Z, 41.14
2023-05-16T09:09:48.976Z, 41.10
2023-05-16T09:10:49.152Z, 41.08
2023-05-16T09:11:49.015Z, 41.10
2023-05-16T09:12:49.008Z, 41.06
2023-05-16T09:13:49.182Z, 41.03
2023-05-16T09:14:49.153Z, 41.02
2023-05-16T09:15:49.167Z, 40.97
2023-05-16T09:16:49.175Z, 40.98
2023-05-16T09:17:49.512Z, 40.93
2023-05-16T09:18:49.322Z, 40.92
2023-05-16T09:19:49.159Z, 40.95
2023-05-16T09:20:49.194Z, 40.94
2023-05-16T09:21:49.174Z, 40.89
2023-05-16T09:22:49.165Z, 40.88
2023-05-16T09:23:49.169Z, 40.87
2023-05-16T09:24:49.161Z, 40.81
2023-05-16T09:25:49.166Z, 40.82
2023-05-16T09:26:49.170Z, 40.78
2023-05-16T09:27:49.339Z, 40.75
2023-05-16T09:28:49.352Z, 40.78
2023-05-16T09:29:49.346Z, 40.74
2023-05-16T09:30:49.486Z, 40.76
2023-05-16T09:31:49.426Z, 40.70
2023-05-16T09:32:49.366Z, 40.69
2023-05-16T09:33:49.344Z, 40.68
2023-05-16T09:34:49.408Z, 40.67
2023-05-16T09:35:49.554Z, 40.69
2023-05-16T09:36:49.348Z, 40.64
2023-05-16T09:37:49.591Z, 40.64
2023-05-16T09:38:49.355Z, 40.59
2023-05-16T09:39:49.352Z, 40.59
2023-05-16T09:40:49.520Z, 40.54
2023-05-16T09:41:49.368Z, 40.58
2023-05-16T09:42:49.512Z, 40.55
2023-05-16T09:43:49.381Z, 40.54
2023-05-16T09:44:49.524Z, 40.49
2023-05-16T09:45:49.524Z, 40.49
2023-05-16T09:46:49.920Z, 40.50
2023-05-16T09:47:49.598Z, 40.47
2023-05-16T09:48:49.526Z, 40.40
2023-05-16T09:49:49.518Z, 40.34
2023-05-16T09:50:50.566Z, 40.33
2023-05-16T09:51:49.521Z, 40.34
2023-05-16T09:52:49.551Z, 40.34
2023-05-16T09:53:49.533Z, 40.34
2023-05-16T09:54:49.692Z, 40.29
2023-05-16T09:55:49.560Z, 40.35
2023-05-16T09:56:49.526Z, 40.37
2023-05-16T09:57:49.546Z, 40.32
2023-05-16T09:58:49.555Z, 40.32
2023-05-16T09:59:49.558Z, 40.29
2023-05-16T10:00:49.690Z, 40.23
2023-05-16T10:01:49.776Z, 40.96
2023-05-16T10:02:49.818Z, 41.64
2023-05-16T10:03:49.874Z, 42.44
2023-05-16T10:04:49.704Z, 43.53
2023-05-16T10:05:49.696Z, 44.34
2023-05-16T10:06:49.724Z, 44.90
2023-05-16T10:07:49.736Z, 45.35
2023-05-16T10:08:49.702Z, 45.52
2023-05-16T10:09:49.703Z, 45.56
2023-05-16T10:10:49.706Z, 45.60
2023-05-16T10:11:49.703Z, 45.66
2023-05-16T10:12:49.882Z, 45.76
2023-05-16T10:13:49.732Z, 45.91
2023-05-16T10:14:49.738Z, 46.04
2023-05-16T10:15:49.804Z, 46.24
2023-05-16T10:16:50.076Z, 46.42
2023-05-16T10:17:49.918Z, 46.57
2023-05-16T10:18:49.898Z, 46.72
2023-05-16T10:19:49.881Z, 46.88
2023-05-16T10:20:49.887Z, 46.98
2023-05-16T10:21:49.905Z, 47.07
2023-05-16T10:22:49.884Z, 47.12
2023-05-16T10:23:49.881Z, 47.24
2023-05-16T10:24:49.908Z, 47.31
2023-05-16T10:25:49.908Z, 47.39
2023-05-16T10:26:49.895Z, 47.47
2023-05-16T10:27:49.894Z, 47.50
2023-05-16T10:28:49.910Z, 47.54
2023-05-16T10:29:54.584Z, 47.53
2023-05-16T10:30:49.901Z, 47.56
2023-05-16T10:31:49.963Z, 47.37
2023-05-16T10:32:50.096Z, 47.30
2023-05-16T10:33:49.916Z, 47.51
2023-05-16T10:34:50.059Z, 47.49
2023-05-16T10:35:49.921Z, 47.24
2023-05-16T10:36:49.916Z, 46.98
2023-05-16T10:37:50.078Z, 46.75
2023-05-16T10:38:49.918Z, 46.58
2023-05-16T10:39:50.058Z, 46.46
2023-05-16T10:40:50.086Z, 46.35
2023-05-16T10:41:50.070Z, 46.23
2023-05-16T10:42:50.080Z, 46.08
2023-05-16T10:43:50.077Z, 45.97
2023-05-16T10:45:02.057Z, 45.92
2023-05-16T10:45:51.033Z, 45.88
2023-05-16T10:46:50.093Z, 45.81
2023-05-16T10:47:50.274Z, 45.72
2023-05-16T10:48:51.473Z, 45.63
2023-05-16T10:49:50.077Z, 45.57
2023-05-16T10:50:50.152Z, 45.45
2023-05-16T10:51:50.089Z, 45.46
2023-05-16T10:52:50.099Z, 45.42
2023-05-16T10:53:50.241Z, 45.36
2023-05-16T10:54:50.249Z, 45.38
2023-05-16T10:55:50.262Z, 45.27
2023-05-16T10:56:50.250Z, 45.28
2023-05-16T10:57:50.241Z, 45.24
2023-05-16T10:58:50.258Z, 45.23
2023-05-16T10:59:50.258Z, 45.17
2023-05-16T11:00:50.291Z, 45.12
2023-05-16T11:01:50.332Z, 45.12
2023-05-16T11:02:50.343Z, 45.02
2023-05-16T11:03:50.318Z, 45.03
2023-05-16T11:04:50.309Z, 45.02
2023-05-16T11:05:50.258Z, 45.02
2023-05-16T11:06:50.254Z, 44.96
2023-05-16T11:07:50.429Z, 44.99
2023-05-16T11:08:50.285Z, 44.97
2023-05-16T11:09:50.286Z, 44.86
2023-05-16T11:10:50.289Z, 44.88
2023-05-16T11:11:50.432Z, 44.83
2023-05-16T11:12:50.432Z, 44.81
2023-05-16T11:13:50.430Z, 44.82
2023-05-16T11:14:50.441Z, 44.72
2023-05-16T11:15:50.441Z, 44.72
2023-05-16T11:16:50.452Z, 44.76
2023-05-16T11:17:50.481Z, 44.67
2023-05-16T11:18:50.484Z, 44.62
2023-05-16T11:19:50.610Z, 44.63
2023-05-16T11:20:50.474Z, 44.60
2023-05-16T11:21:50.475Z, 44.63
2023-05-16T11:22:50.472Z, 44.51
2023-05-16T11:23:50.473Z, 44.57
2023-05-16T11:24:50.488Z, 44.55
2023-05-16T11:25:50.612Z, 44.53
2023-05-16T11:26:50.623Z, 44.49
2023-05-16T11:27:50.620Z, 44.48
2023-05-16T11:28:50.658Z, 44.48
2023-05-16T11:29:50.629Z, 44.51
2023-05-16T11:30:50.628Z, 44.48
2023-05-16T11:31:50.663Z, 44.50
2023-05-16T11:32:50.813Z, 44.39
2023-05-16T11:33:50.620Z, 44.40
2023-05-16T11:34:50.648Z, 44.37
2023-05-16T11:35:51.238Z, 44.27
2023-05-16T11:36:50.812Z, 44.20
2023-05-16T11:37:50.788Z, 44.17
2023-05-16T11:38:50.793Z, 44.18
2023-05-16T11:39:50.847Z, 44.14
2023-05-16T11:40:50.808Z, 44.07
2023-05-16T11:41:50.797Z, 44.08
2023-05-16T11:42:51.720Z, 44.03
2023-05-16T11:43:50.810Z, 44.03
2023-05-16T11:44:50.805Z, 43.96
2023-05-16T11:45:50.809Z, 44.00
2023-05-16T11:46:50.864Z, 43.93
2023-05-16T11:47:50.876Z, 43.94
2023-05-16T11:48:50.808Z, 43.96
2023-05-16T11:49:50.838Z, 43.87
2023-05-16T11:50:50.834Z, 43.81
2023-05-16T11:51:50.982Z, 43.79
2023-05-16T11:52:50.970Z, 43.76
2023-05-16T11:53:51.013Z, 43.77
2023-05-16T11:54:50.974Z, 43.74
2023-05-16T11:55:53.941Z, 43.74
2023-05-16T11:56:50.984Z, 43.69
2023-05-16T11:57:50.986Z, 43.67
2023-05-16T11:58:50.987Z, 43.69
2023-05-16T11:59:50.986Z, 43.68
2023-05-16T12:00:51.007Z, 43.67
2023-05-16T12:01:51.014Z, 43.61
2023-05-16T12:02:51.107Z, 43.63
2023-05-16T12:03:51.105Z, 43.56
2023-05-16T12:04:51.164Z, 43.48
2023-05-16T12:05:51.045Z, 43.47
2023-05-16T12:06:51.029Z, 43.51
2023-05-16T12:07:51.044Z, 43.49
2023-05-16T12:08:51.046Z, 43.51
2023-05-16T12:09:51.068Z, 43.51
2023-05-16T12:10:51.049Z, 43.48
2023-05-16T12:11:51.050Z, 43.41
2023-05-16T12:12:51.062Z, 43.41
2023-05-16T12:13:51.047Z, 43.35
2023-05-16T12:14:51.112Z, 43.36
2023-05-16T12:15:51.071Z, 43.39
2023-05-16T12:16:51.204Z, 43.41
2023-05-16T12:17:51.179Z, 43.34
2023-05-16T12:18:51.119Z, 43.31
2023-05-16T12:19:51.086Z, 43.26
2023-05-16T12:20:51.233Z, 43.25
2023-05-16T12:21:51.134Z, 43.20
2023-05-16T12:22:51.187Z, 43.23
2023-05-16T12:23:51.160Z, 43.23
2023-05-16T12:24:51.166Z, 43.17
2023-05-16T12:25:51.196Z, 43.21
2023-05-16T12:26:51.185Z, 43.13
2023-05-16T12:27:51.206Z, 43.12
2023-05-16T12:28:51.177Z, 43.12
2023-05-16T12:29:51.240Z, 43.09